arxmliv
arxmliv build tool
 
KWARC group
LaTeXML
About
   
 

Detailed info

Back to Homepage

List of missing_macros

No. Date Filename num_warningnum_errornum_xmargok_xmargnum_xmathok_xmathMissing macros
143001 2013-03-03 14:55:51 /0307/cond-mat.0307618 110000[\address].
143002 2013-03-03 14:55:41 /0307/cond-mat.0307622 610000[\sout].
143003 2013-03-03 14:55:40 /0307/cond-mat.0307611 5100000[{acknowledgments}, \affiliation, \psfig, \pubyear]; 1 missing file[jfm.sty].
143004 2013-03-03 14:55:04 /0307/cond-mat.0307613 110000[\theappendix].
143005 2013-03-03 14:54:19 /0307/cond-mat.0307588 510000[\theappendix].
143006 2013-03-03 14:54:07 /0307/cond-mat.0307605 610000[\psfigurepath].
143007 2013-03-03 14:51:14 /0307/cond-mat.0307546 010000[\address].
143008 2013-03-03 14:51:03 /0307/cond-mat.0307526 5960000[\kword, \abst, \inst, \recdate, \mib, \citen].
143009 2013-03-03 14:50:38 /0307/cond-mat.0307536 940000[{acknowledgments}, \affil, \articletitle, \normallatexbib].
143010 2013-03-03 14:50:07 /0307/cond-mat.0307517 1220000[\setdec, \dec].
143011 2013-03-03 14:48:39 /0307/cond-mat.0307518 12220000[\Summary, \AdresseBis, \Maketitle, \Author, \includegraphics, \DocReference, \PSLogo, \PACS, \Title, \LogoHeight, \Keywords]; 1 missing file[crtbt.cls].
143012 2013-03-03 14:48:22 /0307/cond-mat.0307505 27510000[\setkeys].
143013 2013-03-03 14:47:53 /0307/cond-mat.0307506 2130000[\email, \@affiliation, \etal].
143014 2013-03-03 14:47:26 /0307/cond-mat.0307478 1070000[\ls, \affiliation, \ns, \pagerange, {acknowledgements}, \volume, \pubyear]; 1 missing file[jfm.cls].
143015 2013-03-03 14:46:11 /0307/cond-mat.0307460 1120000[\braket, \ket].
143016 2013-03-03 14:45:29 /0307/cond-mat.0307452 1450000[\kword, \abst, \inst, \recdate, \mib].
143017 2013-03-03 14:44:30 /0307/cond-mat.0307429 1010000[\theappendix].
143018 2013-03-03 14:44:24 /0307/cond-mat.0307433 110000[\theappendix].
143019 2013-03-03 14:44:04 /0307/cond-mat.0307422 110000[\psfrag].
143020 2013-03-03 14:43:20 /0307/cond-mat.0307408 240000[\epsfbox, \epsfxsize]; 2 missing files[subeqna.sty, jpsjbs.sty].
143021 2013-03-03 14:42:16 /0307/cond-mat.0307386 1070000[\address, \department, \summary, \university, \internet, \country, \keywords]; 1 missing file[wseas.cls].
143022 2013-03-03 14:41:53 /0307/cond-mat.0307371 010000[\binom].
143023 2013-03-03 14:41:02 /0307/cond-mat.0307355 13110000[\rlvec, \drawdim, \setunitscale, \linewd, {texdraw}, \lellip, \move].
143024 2013-03-03 14:40:37 /0307/cond-mat.0307356 5320000[{tablenotes}, \midrule, \sups, \addlinespace, {threeparttable}, \tnote, \cmidrule, \toprule, \sub, \bottomrule]; 2 missing files[3parttable.sty, textscripts.sty].
143025 2013-03-03 14:40:05 /0307/cond-mat.0307357 280000[\@affiliation, \onefigure].
143026 2013-03-03 14:40:04 /0307/cond-mat.0307358 040000[\extrasenglish, \dateenglish, \captionsenglish]; 1 missing file[pslatex.sty].
143027 2013-03-03 14:39:59 /0307/cond-mat.0307339 8110000[\psfrag, \citen].
143028 2013-03-03 14:38:04 /0307/cond-mat.0307294 620000[\tccentigrade]; 1 missing file[mathcomp.sty].
143029 2013-03-03 14:37:51 /0307/cond-mat.0307282 19250000[\mutt, \murrpara, \ktblind, \mat, \murt, \Mat, \murrparaperp, \muttpara, \murr, \kt, \T, \mut, \mur, \muparablind, \muttperp, \muperpblind, \e, \mutr, \murrperp, \muttparaperp, \kB, \timestext, \hatvecr, \mutrperp, \kr].
143030 2013-03-03 14:37:31 /0307/cond-mat.0307291 1120000[\setstretch, \marginsize].
143031 2013-03-03 14:37:14 /0307/cond-mat.0307289 340000[\authorinfo, \skiplinehalf, \acknowledgments, \keywords]; 1 missing file[spie.cls].
143032 2013-03-03 14:37:08 /0307/cond-mat.0307287 110000[\psfrag].
143033 2013-03-03 14:36:48 /0307/cond-mat.0307275 050000[\institute, \acknowledgements, \epsffile, {opening}, \epsfysize].
143034 2013-03-03 14:36:39 /0307/cond-mat.0307260 210000[\theappendix].
143035 2013-03-03 14:35:36 /0307/cond-mat.0307253 120000[\sameaddress, \address]; 1 missing file[edp-jp4.cls].
143036 2013-03-03 14:33:29 /0307/cond-mat.0307200 910000[\psfrag].
143037 2013-03-03 14:32:28 /0307/cond-mat.0307193 2710000[\dsum].
143038 2013-03-03 14:32:23 /0307/cond-mat.0307192 130000[\@affiliation, \onefigure].
143039 2013-03-03 14:32:07 /0307/cond-mat.0307198 1260000[\pyear, \vol, {reference}, \keywords, \received].
143040 2013-03-03 14:31:57 /0307/cond-mat.0307185 030000[\extrasenglish, \dateenglish, \captionsenglish].
143041 2013-03-03 14:31:56 /0307/cond-mat.0307172 410000[\mathinner].
143042 2013-03-03 14:30:15 /0307/cond-mat.0307143 420000[\psfig]; 1 missing file[psfig].
143043 2013-03-03 14:29:35 /0307/cond-mat.0307153 830000[\email, \@affiliation].
143044 2013-03-03 14:28:57 /0307/cond-mat.0307142 1410000[\address].
143045 2013-03-03 14:27:12 /0307/cond-mat.0307091 1750000[\kword, \abst, \inst, \recdate, \citen].
143046 2013-03-03 14:26:52 /0307/cond-mat.0307092 010000[\psfrag].
143047 2013-03-03 14:26:42 /0307/cond-mat.0307097 060000[\kword, \abst, \inst, \recdate, \citen].
143048 2013-03-03 14:26:41 /0307/cond-mat.0307093 410000[\setkeys].
143049 2013-03-03 14:26:39 /0307/cond-mat.0307094 4160000[\cyrs, \cyrk, \cyrc, \cyrr, \cyrt, \cyre, \cyro, \cyrya, \cyru, \cyrl, \CYRS, \cyra, \cyrery, \cyri, \cyrp]; 1 missing file[T2Aenc.def].
143050 2013-03-03 14:26:08 /0307/cond-mat.0307077 590000[\sodauthor, \rauthor, \address, \sodtitle, \lat, \PACS, \rtitle].
143051 2013-03-03 14:24:42 /0307/cond-mat.0307011 8110000[\psfrag].
143052 2013-03-03 14:23:04 /0307/cond-mat.0307049 010000[\keywords].
143053 2013-03-03 14:22:24 /0307/cond-mat.0307039 110000[\citen].
143054 2013-03-03 14:22:12 /0307/cond-mat.0307022 250000[\psboxscaled]; 1 missing file[psbox.tex].
143055 2013-03-03 14:21:15 /0307/astro-ph.0307563 710000[\theappendix].
143056 2013-03-03 14:20:05 /0307/astro-ph.0307536 610000[\comment].
143057 2013-03-03 14:20:01 /0307/astro-ph.0307560 320000[\submitted]; 1 missing file[apjfonts.sty].
143058 2013-03-03 14:19:54 /0307/astro-ph.0307549 4110000[\citeauthoryear, \institute, {opening}, {article}, \keywords, \newdisplay, Align, \theendnotes, \shortcite, \runningauthor].
143059 2013-03-03 14:19:42 /0307/astro-ph.0307548 1330000[\address, \TitreGlobal, \runningtitle]; 1 missing file[edp-conf.cls].
143060 2013-03-03 14:19:41 /0307/astro-ph.0307547 1140000[\affil, \apj, \aj, \ga, \aap, \mnras, \plotone, \reference, {references}, \plottwo]; 1 missing file[newpasp.sty].
143061 2013-03-03 14:19:41 /0307/astro-ph.0307550 090000[\citeauthoryear, \theendnotes, \shortcite, \runningauthor, \institute, {opening}, {article}, \keywords, \newdisplay].
143062 2013-03-03 14:19:35 /0307/astro-ph.0307524 1240000[\refcite]; 1 missing file[ws.sty].
143063 2013-03-03 14:19:06 /0307/astro-ph.0307529 510000[\theappendix].
143064 2013-03-03 14:19:05 /0307/astro-ph.0307528 11140000[\citeauthoryear, \opencite, \surname, \figcapfont, \institute, \figtabdot, {opening}, {article}, \keywords, \lsim, \email, \pdfcompresslevel, \inlinecite, {acknowledgements}].
143065 2013-03-03 14:18:54 /0307/astro-ph.0307478 1990000[{sidewaystable}, \shortcite, {turn}]; 2 missing files[report.sty, identfirst.sty].
143066 2013-03-03 14:18:35 /0307/astro-ph.0307518 470000[\affil, \Received, \FigureFile, \email, \Accepted, \KeyWords, \SetRunningHead]; 1 missing file[pasj00.cls].
143067 2013-03-03 14:18:20 /0307/astro-ph.0307503 110000[\theappendix].
143068 2013-03-03 14:17:27 /0307/astro-ph.0307496 1110000[\arcmin, \affil, \plotfiddle, \la, \sun, \reference, \farcm, {references}, \fdg, \plottwo]; 1 missing file[newpasp.sty].
143069 2013-03-03 14:17:25 /0307/astro-ph.0307498 0100000[\arcmin, \affil, \ion, \plotone, \arcsec, \plotfiddle]; 1 missing file[newpasp.sty].
143070 2013-03-03 14:17:17 /0307/astro-ph.0307486 610000[\theappendix].
143071 2013-03-03 14:17:08 /0307/astro-ph.0307485 1240000[\kword, \abst, \inst, \recdate].
143072 2013-03-03 14:16:35 /0307/astro-ph.0307475 4110000[\rhead, \headnote, \inst, \correspondence, \institute, \lhead, \rf, \aba, \refer, \acknowledgements, \abe].
143073 2013-03-03 14:15:47 /0307/astro-ph.0307481 0140000[\affil, \apj, \aj, \plotfiddle, \aap, \mnras, \reference, {references}, \fdg]; 1 missing file[newpasp.sty].
143074 2013-03-03 14:15:27 /0307/astro-ph.0307457 310000[\al@[].
143075 2013-03-03 14:15:15 /0307/astro-ph.0307453 030000[\extrasenglish, \dateenglish, \captionsenglish].
143076 2013-03-03 14:15:09 /0307/astro-ph.0307452 050000[\printAuthorIndex, \BookTitle, \makeauthorindex, \Input].
143077 2013-03-03 14:14:40 /0307/astro-ph.0307444 120000[\address, \abstracts]; 1 missing file[Rinton-P9x6.cls].
143078 2013-03-03 14:14:32 /0307/astro-ph.0307445 030000[\shorttitle, \shortauthor]; 1 missing file[emulatepasa.sty].
143079 2013-03-03 14:14:08 /0307/astro-ph.0307437 030000[\epsffile, \epsfxsize]; 1 missing file[apjfonts.sty].
143080 2013-03-03 14:13:58 /0307/astro-ph.0307433 070000[\authorstucture, \talkauthors, \shorttitle, \firstauthor, \structure, \talktitle]; 1 missing file[perugia.sty].
143081 2013-03-03 14:13:57 /0307/astro-ph.0307420 1310000[\theappendix].
143082 2013-03-03 14:13:57 /0307/astro-ph.0307436 060000[\egcite, \ncite, \scite]; 1 missing file[pjw_cite3.sty].
143083 2013-03-03 14:13:26 /0307/astro-ph.0307426 550000[{theacknowledgments}, \layoutstyle]; 1 missing file[{aipcheck}].
143084 2013-03-03 14:12:50 /0307/astro-ph.0307418 170000[\inst, \titlerunning, \offprints, \institute, \acknowledgements, \authorrunning, \keywords]; 1 missing file[cjaa.cls].
143085 2013-03-03 14:12:00 /0307/astro-ph.0307378 4920000[\thechapter, \@currentID, \HeadText, {thereferences}]; 2 missing files[ociwsymp1.sty, caps.cls].
143086 2013-03-03 14:11:52 /0307/astro-ph.0307356 010000[\theappendix].
143087 2013-03-03 14:11:42 /0307/astro-ph.0307368 1420000[{sidewaystable*}].
143088 2013-03-03 14:11:08 /0307/astro-ph.0307373 210000[\theappendix].
143089 2013-03-03 14:10:33 /0307/astro-ph.0307362 090000[\affil, \mnras, \apj, \reference, {references}, \plottwo]; 1 missing file[newpasp.sty].
143090 2013-03-03 14:10:16 /0307/astro-ph.0307348 060000[\affil, \reference, \plotone, {references}, \plottwo]; 1 missing file[newpasp.sty].
143091 2013-03-03 14:10:05 /0307/astro-ph.0307325 3310000[\submitted].
143092 2013-03-03 14:09:35 /0307/astro-ph.0307330 210000[\theappendix].
143093 2013-03-03 14:08:55 /0307/astro-ph.0307334 0200000[\printAuthorIndex, \BookTitle, \makeauthorindex, \Input, \CopyRight]; 1 missing file[HEGRA_tsukuba.sty].
143094 2013-03-03 14:08:42 /0307/astro-ph.0307306 1030000[\epsfbox, \epsfxsize]; 1 missing file[apjfonts.sty].
143095 2013-03-03 14:08:32 /0307/astro-ph.0307305 110000[\theappendix].
143096 2013-03-03 14:08:30 /0307/astro-ph.0307311 710000[\psfrag].
143097 2013-03-03 14:08:14 /0307/astro-ph.0307298 4670000[\theappendix, \pcite, \ncite, \scite]; 1 missing file[mnras_cite.sty].
143098 2013-03-03 14:08:12 /0307/astro-ph.0307309 290000[\citeauthoryear, \surname, {ao}, \institute, {opening}, {article}, \keywords, \runningauthor, {acknowledgements}].
143099 2013-03-03 14:08:11 /0307/astro-ph.0307308 1190000[\affil, \apj, \citep, \pasj, \apjl, \aap, \nat, \Accepted, \email, \pasp, \KeyWords, \aj, \iaucirc, \apss, \Received, \mnras, \FigureFile, \citet, \SetRunningHead]; 1 missing file[pasj00.cls].
143100 2013-03-03 14:07:55 /0307/astro-ph.0307293 480000[\citealt, \bibpunct, \citep, \citet]; 1 missing file[natbib2.sty].
143101 2013-03-03 14:06:16 /0307/astro-ph.0307266 1310000[\theappendix].
143102 2013-03-03 14:05:53 /0307/astro-ph.0307282 910000[\theappendix].
143103 2013-03-03 14:04:53 /0307/astro-ph.0307268 610000[\sigori].
143104 2013-03-03 14:04:20 /0307/astro-ph.0307257 0100000[\affil, \reference, \plotone, {references}, \plottwo]; 1 missing file[newpasp.sty].
143105 2013-03-03 14:04:13 /0307/astro-ph.0307244 31790000[\thechapter, \@currentID, \HeadText, {thereferences}]; 2 missing files[ociwsymp2.sty, caps.cls].
143106 2013-03-03 14:03:50 /0307/astro-ph.0307248 3720000[\theappendix]; 1 missing file[onecolfloat.sty].
143107 2013-03-03 14:03:09 /0307/astro-ph.0307217 8410000[\theappendix].
143108 2013-03-03 14:02:44 /0307/astro-ph.0307238 040000[\endofpaper, \BookTitle, \makeauthorindex, \CopyRight].
143109 2013-03-03 14:02:36 /0307/astro-ph.0307239 040000[\endofpaper, \BookTitle, \makeauthorindex, \CopyRight].
143110 2013-03-03 14:02:36 /0307/astro-ph.0307240 350000[\abstracts, \psfig, \tbl]; 2 missing files[ws.sty, astron.sty].
143111 2013-03-03 14:02:04 /0307/astro-ph.0307212 030000[{keywords}, \affiliation]; 1 missing file[ar_prepr.sty].
143112 2013-03-03 14:01:24 /0307/astro-ph.0307205 0220000[\apj, \tablefirsthead, \aas, \tabletail, {acknowledgements}, {supertabular}, \bsao, \aj, \tablehead, \institute, \apss, \keywords, \mnras, Align, \issue, \apjs, \aaa, \saoname, \azh, \topcaption]; 1 missing file[sao2.sty].
143113 2013-03-03 14:01:14 /0307/astro-ph.0307207 110000[\theappendix].
143114 2013-03-03 14:00:59 /0307/astro-ph.0307192 210000[\rotate].
143115 2013-03-03 14:00:14 /0307/astro-ph.0307196 410000[\citeauthoryear].
143116 2013-03-03 13:59:54 /0307/astro-ph.0307197 010000[\citeauthoryear].
143117 2013-03-03 13:55:51 /0307/astro-ph.0307173 3180000[\thechapter, \@currentID, \HeadText, {thereferences}]; 2 missing files[ociwsymp4e.sty, caps.cls].
143118 2013-03-03 13:55:28 /0307/astro-ph.0307177 24650000[\thechapter, \@currentID, \HeadText, {thereferences}]; 2 missing files[ociwsymp3.sty, caps.cls].
143119 2013-03-03 13:55:12 /0307/astro-ph.0307160 220000[\cty, \cny].
143120 2013-03-03 13:54:54 /0307/astro-ph.0307179 790000[\submitted].
143121 2013-03-03 13:53:29 /0307/astro-ph.0307150 5910000[\thechapter, \@currentID, \HeadText, {thereferences}]; 2 missing files[ociwsymp3.sty, caps.cls].
143122 2013-03-03 13:50:44 /0307/astro-ph.0307135 1470000[\scite]; 1 missing file[mnras_cite.sty].
143123 2013-03-03 13:49:59 /0307/astro-ph.0307133 020000[\abstracts]; 1 missing file[ws.sty].
143124 2013-03-03 13:49:50 /0307/astro-ph.0307134 020000[\abstracts]; 1 missing file[ws.sty].
143125 2013-03-03 13:49:44 /0307/astro-ph.0307137 050000[{acknowledgments}, \affil, \reference, {references}]; 1 missing file[newpasp.sty].
143126 2013-03-03 13:49:40 /0307/astro-ph.0307138 010000[\toctitle].
143127 2013-03-03 13:48:55 /0307/astro-ph.0307117 2210000[\theappendix].
143128 2013-03-03 13:48:39 /0307/astro-ph.0307115 9510000[\address].
143129 2013-03-03 13:47:52 /0307/astro-ph.0307103 120000[\psfig]; 1 missing file[psfig].
143130 2013-03-03 13:47:12 /0307/astro-ph.0307090 170000[\addresstext, \address, \journalinfo, \shorttitle, \email, \shortauthor, \submitted]; 1 missing file[pazh_mod.cls].
143131 2013-03-03 13:47:05 /0307/astro-ph.0307095 010000[\xmm].
143132 2013-03-03 13:45:55 /0307/astro-ph.0307086 290000[\surname, \institute, {opening}, {article}, \keywords, \newdisplay, \lsim, \runningauthor, \gsim].
143133 2013-03-03 13:45:45 /0307/astro-ph.0307071 410000[\layoutstyle].
143134 2013-03-03 13:45:29 /0307/astro-ph.0307048 73200000[\mg].
143135 2013-03-03 13:45:07 /0307/astro-ph.0307064 4220000[\affil, \apj, \timeform, \citep, \aaps, \pasj, \apjl, \aap, \Accepted, \email, \pasp, \araa, \qjras, \KeyWords, \aj, \iaucirc, \apss, \Received, \mnras, \FigureFile, \citet, \SetRunningHead]; 1 missing file[pasj00.cls].
143136 2013-03-03 13:44:03 /0307/astro-ph.0307036 1420000[\a]; 1 missing file[{aas_macros.txt}].
143137 2013-03-03 13:44:00 /0306/quant-ph.0306145 4460000[\surname, \inlinecite, {opening}, {article}, {acknowledgements}, \keywords].
143138 2013-03-03 13:43:59 /0307/astro-ph.0307057 040000[\affil, \reference, {references}]; 1 missing file[newpasp.sty].
143139 2013-03-03 13:43:42 /0307/astro-ph.0307026 310000[\theappendix].
143140 2013-03-03 13:43:41 /0307/astro-ph.0307042 250000[\endofpaper, \re, \BookTitle, \makeauthorindex, \CopyRight].
143141 2013-03-03 13:43:10 /0307/astro-ph.0307029 080000[\headertitle, \dates, \mainauthor, \pcite, \summary, \affiliation, \psfig]; 1 missing file[nature_local.sty].
143142 2013-03-03 13:42:39 /0307/astro-ph.0307019 030000[\extrasenglish, \dateenglish, \captionsenglish].
143143 2013-03-03 13:41:47 /0307/astro-ph.0307007 0160000[\affil, {references}, \plottwo]; 1 missing file[newpasp.sty].
143144 2013-03-03 13:41:34 /0307/astro-ph.0307003 6410000[\theappendix, \psfig]; 1 missing file[psfig].
143145 2013-03-03 13:41:28 /0307/astro-ph.0307013 1480000[\surname, \institute, {opening}, {article}, \keywords, \theendnotes, \runningauthor, \acknowledgements].
143146 2013-03-03 13:41:03 /0307/astro-ph.0307002 080000[\surname, \institute, {opening}, {article}, \keywords, \email, \runningauthor, {acknowledgements}].
143147 2013-03-03 13:41:02 /0307/astro-ph.0307001 080000[\surname, \institute, {opening}, {article}, \keywords, \email, \runningauthor, {acknowledgements}].
143148 2013-03-03 13:40:58 /0306/quant-ph.0306182 5820000[\theappendix, \psfrag].
143149 2013-03-03 13:40:56 /0306/quant-ph.0306197 10110000[\epsfbox, \abstracts, \epsfxsize]; 1 missing file[ws.sty].
143150 2013-03-03 13:40:32 /0306/quant-ph.0306198 010000[\iint].
143151 2013-03-03 13:40:17 /0306/quant-ph.0306177 2010000[\psfrag].
143152 2013-03-03 13:40:04 /0306/quant-ph.0306172 030000[\extrasenglish, \dateenglish, \captionsenglish].
143153 2013-03-03 13:38:54 /0306/quant-ph.0306141 104110000[\nonumsection, \copyrightheading, \fpage, \fcaption, \keywords, \alphfootnote, \runninghead, \abstracts, \communicate, \textlineskip, \publisher].
143154 2013-03-03 13:38:24 /0306/quant-ph.0306082 305100000[{thesisauthorvita}, \leftchapter, \singlespace, \thesistitlepage, \thesiscopyrightpage, {thesisabstract}, \thesissignaturepage, {thesisacknowledgments}, \phdthesis, \thesisdedicationpage].
143155 2013-03-03 13:37:26 /0306/quant-ph.0306109 1010000[\theappendix].
143156 2013-03-03 13:36:35 /0306/quant-ph.0306113 6330000[\address, \epsfbox, \be, \abstracts, \ee, \epsfxsize]; 1 missing file[Rinton-P9x6.cls].
143157 2013-03-03 13:36:21 /0306/quant-ph.0306098 150000[\arc, \shade, \drawline, \blacken, \dashline].
143158 2013-03-03 13:35:44 /0306/quant-ph.0306078 030000[\extrasenglish, \dateenglish, \captionsenglish].
143159 2013-03-03 13:35:00 /0306/quant-ph.0306067 620000[\backslashbox]; 1 missing file[slashbox.sty].
143160 2013-03-03 13:33:57 /0306/quant-ph.0306048 3120000[\copyrightheading, {theorem}, \fpage, \keywords, \alphfootnote, \proof, {corollary}, \runninghead, \abstracts, \communicate, \textlineskip, \publisher].
143161 2013-03-03 13:32:40 /0306/quant-ph.0306005 13210000[\delimiter].
143162 2013-03-03 13:32:40 /0306/quant-ph.0306027 410000[\TCItag].
143163 2013-03-03 13:32:17 /0306/quant-ph.0306013 020000[\address, \keywords].
143164 2013-03-03 13:31:26 /0306/quant-ph.0306009 2920000[\yng].
143165 2013-03-03 13:31:25 /0306/physics.0306183 3920000[\newsymbol, \vacio].
143166 2013-03-03 13:31:10 /0306/quant-ph.0306008 4220000[\cM, \N, \ketbra, \braket, \cA, \Schrodinger, \tp, \cF, \id, \tr, \abs, \trnorm, \map, \cE, \R, \cbnorm, \set, \idty, \cB, \cH, \setcond, \norm].
143167 2013-03-03 13:30:53 /0306/physics.0306192 410000[\theappendix].
143168 2013-03-03 13:30:45 /0306/nucl-th.0306086 85120000[\frontmatter, \thechapter, \@currentID, \mainmatter, \backmatter]; 1 missing file[osuthesis.cls].
143169 2013-03-03 13:30:38 /0306/physics.0306176 310000[\psfrag].
143170 2013-03-03 13:30:15 /0306/physics.0306182 1820000[{theacknowledgments}, \layoutstyle].
143171 2013-03-03 13:29:42 /0306/physics.0306153 1820000[\theappendix, Align].
143172 2013-03-03 13:28:47 /0306/physics.0306128 1520000[{theacknowledgments}, \layoutstyle].
143173 2013-03-03 13:28:45 /0306/physics.0306146 110000[\psfrag].
143174 2013-03-03 13:28:41 /0306/physics.0306131 910000[\theappendix].
143175 2013-03-03 13:28:22 /0306/physics.0306130 380000[\abs, \micro, \tsub, \unit, \vect, \tsup]; 3 missing files[gensymb.sty, JAC2003.cls, benc.sty].
143176 2013-03-03 13:27:22 /0306/physics.0306061 010000[\setkeys].
143177 2013-03-03 13:27:12 /0306/physics.0306066 190000[\includegraphics, \abstracts]; 1 missing file[ws.sty].
143178 2013-03-03 13:27:06 /0306/physics.0306075 010000[\minuso].
143179 2013-03-03 13:27:05 /0306/physics.0306056 1430000[{boxedminipage}]; 1 missing file[boxedminipage.sty].
143180 2013-03-03 13:26:46 /0306/physics.0306057 050000[\endofpaper, \re, \BookTitle, \makeauthorindex, \CopyRight].
143181 2013-03-03 13:26:40 /0306/physics.0306043 180000[{article}, \authoraddr, \authorrunninghead, \altaffilmark, \authors, \altaffiltext, \titlerunninghead, {acknowledgements}]; 1 missing file[agu2001.cls].
143182 2013-03-03 13:25:53 /0306/physics.0306020 15150000[\cyrk, \cyrs, \cyrr, \cyre, \cyrt, \cyro, \cyru, \cyrl, \cyra, \CYRS, \cyrery, \CYRR, \cyri, \cyrp]; 1 missing file[T2Aenc.def].
143183 2013-03-03 13:24:03 /0306/nucl-th.0306073 940000[\copyrightyear, {theacknowledgments}, \layoutstyle, \classification].
143184 2013-03-03 13:23:59 /0306/nucl-ex.0306023 9580000[{turn}].
143185 2013-03-03 13:23:40 /0306/nucl-th.0306059 2130000[\aftertab, \instnr, \lasthline, \beforetab, \midhline, \runningtitle, \captionaftertab, \preline, {acknowledge}, \runningauthor, \firsthline, \instlist, \received]; 1 missing file[FBSart.cls].
143186 2013-03-03 13:22:02 /0306/nucl-th.0306041 510000[\setkeys].
143187 2013-03-03 13:21:27 /0306/nucl-th.0306020 030000[\extrasenglish, \dateenglish, \captionsenglish].
143188 2013-03-03 13:21:17 /0306/nucl-th.0306016 1580000[\Line, \Photon, \Text, \ArrowLine, \GCirc, \SetWidth, \SetScale, \SetOffset].
143189 2013-03-03 13:20:59 /0306/nucl-th.0306021 160000[{acknowledge}, \institute]; 1 missing file[FBSsuppl.cls].
143190 2013-03-03 13:20:20 /0306/nucl-ex.0306031 6120000[\includegraphics, \refer, \email]; 1 missing file[hsproc.sty].
143191 2013-03-03 13:20:19 /0306/nlin.0306055 17380000[\xspace, {xmpl}, \RE, \refe, \labelF, \refS, \eg, \dd, \emox, \refF, \DEF, \ii, \labelS, \gtrsim, \ee, \ie, \ABS]; 1 missing file[AUS-math.sty].
143192 2013-03-03 13:19:28 /0306/nucl-ex.0306026 0120000[\twofigures, \@affiliation, \onefigure, \etal].
143193 2013-03-03 13:19:17 /0306/nlin.0306040 2370000[\jumponeleft, \jumptworight, {pf*}, \jumptwoleft, \jumponeright, \jumpthreeleft]; 1 missing file[jump.sty].
143194 2013-03-03 13:19:09 /0306/nucl-ex.0306013 280000[\keyword, \PACS, \topage, \frompage, {notes}, \authors]; 1 missing file[breckenridge.sty].
143195 2013-03-03 13:19:03 /0306/nucl-ex.0306016 070000[\epsfbox, \abstracts, \epsfxsize]; 1 missing file[ws.sty].
143196 2013-03-03 13:19:00 /0306/nucl-ex.0306001 460000[\keyword, \PACS, \topage, \frompage, \authors]; 1 missing file[breckenridge.sty].
143197 2013-03-03 13:18:42 /0306/nucl-ex.0306005 9110000[\topage, \epsfbox, \insertplot, \frompage, \PACS, \authors, \epsfysize, \epsfxsize]; 1 missing file[breckenridge.sty].
143198 2013-03-03 13:18:28 /0306/nlin.0306033 84110000[{@proof}].
143199 2013-03-03 13:18:16 /0306/nlin.0306034 14100000[\FirstPageHead, \JNMPnumberwithin, \Name, \copyrightnote, \Address, \Date, \Author].
143200 2013-03-03 13:18:14 /0306/nlin.0306054 1190000[\affil, {keywords}, \articletitle, \kluwerbib, {chapthebibliography}].
<<< >>>

[0] [200] [400] [600] [800] [1000] [1200] [1400] [1600] [1800] [2000] [2200] [2400] [2600] [2800] [3000] [3200] [3400] [3600] [3800] [4000] [4200] [4400] [4600] [4800] [5000] [5200] [5400] [5600] [5800] [6000] [6200] [6400] [6600] [6800] [7000] [7200] [7400] [7600] [7800] [8000] [8200] [8400] [8600] [8800] [9000] [9200] [9400] [9600] [9800] [10000] [10200] [10400] [10600] [10800] [11000] [11200] [11400] [11600] [11800] [12000] [12200] [12400] [12600] [12800] [13000] [13200] [13400] [13600] [13800] [14000] [14200] [14400] [14600] [14800] [15000] [15200] [15400] [15600] [15800] [16000] [16200] [16400] [16600] [16800] [17000] [17200] [17400] [17600] [17800] [18000] [18200] [18400] [18600] [18800] [19000] [19200] [19400] [19600] [19800] [20000] [20200] [20400] [20600] [20800] [21000] [21200] [21400] [21600] [21800] [22000] [22200] [22400] [22600] [22800] [23000] [23200] [23400] [23600] [23800] [24000] [24200] [24400] [24600] [24800] [25000] [25200] [25400] [25600] [25800] [26000] [26200] [26400] [26600] [26800] [27000] [27200] [27400] [27600] [27800] [28000] [28200] [28400] [28600] [28800] [29000] [29200] [29400] [29600] [29800] [30000] [30200] [30400] [30600] [30800] [31000] [31200] [31400] [31600] [31800] [32000] [32200] [32400] [32600] [32800] [33000] [33200] [33400] [33600] [33800] [34000] [34200] [34400] [34600] [34800] [35000] [35200] [35400] [35600] [35800] [36000] [36200] [36400] [36600] [36800] [37000] [37200] [37400] [37600] [37800] [38000] [38200] [38400] [38600] [38800] [39000] [39200] [39400] [39600] [39800] [40000] [40200] [40400] [40600] [40800] [41000] [41200] [41400] [41600] [41800] [42000] [42200] [42400] [42600] [42800] [43000] [43200] [43400] [43600] [43800] [44000] [44200] [44400] [44600] [44800] [45000] [45200] [45400] [45600] [45800] [46000] [46200] [46400] [46600] [46800] [47000] [47200] [47400] [47600] [47800] [48000] [48200] [48400] [48600] [48800] [49000] [49200] [49400] [49600] [49800] [50000] [50200] [50400] [50600] [50800] [51000] [51200] [51400] [51600] [51800] [52000] [52200] [52400] [52600] [52800] [53000] [53200] [53400] [53600] [53800] [54000] [54200] [54400] [54600] [54800] [55000] [55200] [55400] [55600] [55800] [56000] [56200] [56400] [56600] [56800] [57000] [57200] [57400] [57600] [57800] [58000] [58200] [58400] [58600] [58800] [59000] [59200] [59400] [59600] [59800] [60000] [60200] [60400] [60600] [60800] [61000] [61200] [61400] [61600] [61800] [62000] [62200] [62400] [62600] [62800] [63000] [63200] [63400] [63600] [63800] [64000] [64200] [64400] [64600] [64800] [65000] [65200] [65400] [65600] [65800] [66000] [66200] [66400] [66600] [66800] [67000] [67200] [67400] [67600] [67800] [68000] [68200] [68400] [68600] [68800] [69000] [69200] [69400] [69600] [69800] [70000] [70200] [70400] [70600] [70800] [71000] [71200] [71400] [71600] [71800] [72000] [72200] [72400] [72600] [72800] [73000] [73200] [73400] [73600] [73800] [74000] [74200] [74400] [74600] [74800] [75000] [75200] [75400] [75600] [75800] [76000] [76200] [76400] [76600] [76800] [77000] [77200] [77400] [77600] [77800] [78000] [78200] [78400] [78600] [78800] [79000] [79200] [79400] [79600] [79800] [80000] [80200] [80400] [80600] [80800] [81000] [81200] [81400] [81600] [81800] [82000] [82200] [82400] [82600] [82800] [83000] [83200] [83400] [83600] [83800] [84000] [84200] [84400] [84600] [84800] [85000] [85200] [85400] [85600] [85800] [86000] [86200] [86400] [86600] [86800] [87000] [87200] [87400] [87600] [87800] [88000] [88200] [88400] [88600] [88800] [89000] [89200] [89400] [89600] [89800] [90000] [90200] [90400] [90600] [90800] [91000] [91200] [91400] [91600] [91800] [92000] [92200] [92400] [92600] [92800] [93000] [93200] [93400] [93600] [93800] [94000] [94200] [94400] [94600] [94800] [95000] [95200] [95400] [95600] [95800] [96000] [96200] [96400] [96600] [96800] [97000] [97200] [97400] [97600] [97800] [98000] [98200] [98400] [98600] [98800] [99000] [99200] [99400] [99600] [99800] [100000] [100200] [100400] [100600] [100800] [101000] [101200] [101400] [101600] [101800] [102000] [102200] [102400] [102600] [102800] [103000] [103200] [103400] [103600] [103800] [104000] [104200] [104400] [104600] [104800] [105000] [105200] [105400] [105600] [105800] [106000] [106200] [106400] [106600] [106800] [107000] [107200] [107400] [107600] [107800] [108000] [108200] [108400] [108600] [108800] [109000] [109200] [109400] [109600] [109800] [110000] [110200] [110400] [110600] [110800] [111000] [111200] [111400] [111600] [111800] [112000] [112200] [112400] [112600] [112800] [113000] [113200] [113400] [113600] [113800] [114000] [114200] [114400] [114600] [114800] [115000] [115200] [115400] [115600] [115800] [116000] [116200] [116400] [116600] [116800] [117000] [117200] [117400] [117600] [117800] [118000] [118200] [118400] [118600] [118800] [119000] [119200] [119400] [119600] [119800] [120000] [120200] [120400] [120600] [120800] [121000] [121200] [121400] [121600] [121800] [122000] [122200] [122400] [122600] [122800] [123000] [123200] [123400] [123600] [123800] [124000] [124200] [124400] [124600] [124800] [125000] [125200] [125400] [125600] [125800] [126000] [126200] [126400] [126600] [126800] [127000] [127200] [127400] [127600] [127800] [128000] [128200] [128400] [128600] [128800] [129000] [129200] [129400] [129600] [129800] [130000] [130200] [130400] [130600] [130800] [131000] [131200] [131400] [131600] [131800] [132000] [132200] [132400] [132600] [132800] [133000] [133200] [133400] [133600] [133800] [134000] [134200] [134400] [134600] [134800] [135000] [135200] [135400] [135600] [135800] [136000] [136200] [136400] [136600] [136800] [137000] [137200] [137400] [137600] [137800] [138000] [138200] [138400] [138600] [138800] [139000] [139200] [139400] [139600] [139800] [140000] [140200] [140400] [140600] [140800] [141000] [141200] [141400] [141600] [141800] [142000] [142200] [142400] [142600] [142800] [143000] [143200] [143400] [143600] [143800] [144000] [144200] [144400] [144600] [144800] [145000] [145200] [145400] [145600] [145800] [146000] [146200] [146400] [146600] [146800] [147000] [147200] [147400] [147600] [147800] [148000] [148200] [148400] [148600] [148800] [149000] [149200] [149400] [149600] [149800] [150000] [150200] [150400] [150600] [150800] [151000] [151200] [151400] [151600] [151800] [152000] [152200] [152400] [152600] [152800] [153000] [153200] [153400] [153600] [153800] [154000] [154200] [154400] [154600] [154800] [155000] [155200] [155400] [155600] [155800] [156000] [156200] [156400] [156600] [156800] [157000] [157200] [157400] [157600] [157800] [158000] [158200] [158400] [158600] [158800] [159000] [159200] [159400] [159600] [159800] [160000] [160200] [160400] [160600] [160800] [161000] [161200] [161400] [161600] [161800] [162000] [162200] [162400] [162600] [162800] [163000] [163200] [163400] [163600] [163800] [164000] [164200] [164400] [164600]
 
  The service has been written by
Heinrich Stamerjohanns